sensor_id;sensor_type;location;lat;lon;timestamp;P1;durP1;ratioP1;P2;durP2;ratioP2
20379;SDS011;10349;48.666;8.948;2023-08-20T00:00:16;18.63;;;8.57;;
20379;SDS011;10349;48.666;8.948;2023-08-20T00:02:45;10.30;;;8.57;;
20379;SDS011;10349;48.666;8.948;2023-08-20T00:05:11;9.67;;;8.63;;
20379;SDS011;10349;48.666;8.948;2023-08-20T00:07:38;10.27;;;8.97;;
20379;SDS011;10349;48.666;8.948;2023-08-20T00:10:04;9.90;;;8.90;;
20379;SDS011;10349;48.666;8.948;2023-08-20T00:12:31;7.83;;;7.23;;
20379;SDS011;10349;48.666;8.948;2023-08-20T00:17:32;10.03;;;8.67;;
20379;SDS011;10349;48.666;8.948;2023-08-20T00:20:03;12.20;;;8.97;;
20379;SDS011;10349;48.666;8.948;2023-08-20T00:22:35;11.60;;;8.17;;
20379;SDS011;10349;48.666;8.948;2023-08-20T00:25:01;9.80;;;8.47;;
20379;SDS011;10349;48.666;8.948;2023-08-20T00:27:29;12.40;;;9.10;;
20379;SDS011;10349;48.666;8.948;2023-08-20T00:29:54;10.00;;;8.43;;
20379;SDS011;10349;48.666;8.948;2023-08-20T00:32:20;9.23;;;8.30;;
20379;SDS011;10349;48.666;8.948;2023-08-20T00:34:46;9.97;;;8.20;;
20379;SDS011;10349;48.666;8.948;2023-08-20T00:37:12;10.10;;;8.97;;
20379;SDS011;10349;48.666;8.948;2023-08-20T00:39:38;13.27;;;8.83;;
20379;SDS011;10349;48.666;8.948;2023-08-20T00:42:04;9.40;;;8.50;;
20379;SDS011;10349;48.666;8.948;2023-08-20T00:44:31;14.53;;;9.03;;
20379;SDS011;10349;48.666;8.948;2023-08-20T00:46:56;9.80;;;8.80;;
20379;SDS011;10349;48.666;8.948;2023-08-20T00:49:25;10.20;;;9.20;;
20379;SDS011;10349;48.666;8.948;2023-08-20T00:51:51;9.43;;;8.60;;
20379;SDS011;10349;48.666;8.948;2023-08-20T00:54:18;11.87;;;9.27;;
20379;SDS011;10349;48.666;8.948;2023-08-20T00:56:45;14.40;;;10.30;;
20379;SDS011;10349;48.666;8.948;2023-08-20T00:59:12;8.93;;;8.13;;
20379;SDS011;10349;48.666;8.948;2023-08-20T01:01:38;9.77;;;8.77;;
20379;SDS011;10349;48.666;8.948;2023-08-20T01:04:04;8.40;;;7.70;;
20379;SDS011;10349;48.666;8.948;2023-08-20T01:09:09;10.27;;;8.90;;
20379;SDS011;10349;48.666;8.948;2023-08-20T01:11:47;8.80;;;8.00;;
20379;SDS011;10349;48.666;8.948;2023-08-20T01:14:18;11.03;;;8.70;;
20379;SDS011;10349;48.666;8.948;2023-08-20T01:16:44;8.17;;;7.57;;
20379;SDS011;10349;48.666;8.948;2023-08-20T01:19:12;9.20;;;8.37;;
20379;SDS011;10349;48.666;8.948;2023-08-20T01:21:53;11.57;;;8.50;;
20379;SDS011;10349;48.666;8.948;2023-08-20T01:30:01;12.10;;;8.23;;
20379;SDS011;10349;48.666;8.948;2023-08-20T01:32:29;10.00;;;9.00;;
20379;SDS011;10349;48.666;8.948;2023-08-20T01:34:55;9.33;;;8.37;;
20379;SDS011;10349;48.666;8.948;2023-08-20T01:37:21;9.67;;;8.67;;
20379;SDS011;10349;48.666;8.948;2023-08-20T01:39:48;10.97;;;8.33;;
20379;SDS011;10349;48.666;8.948;2023-08-20T01:42:14;9.40;;;8.53;;
20379;SDS011;10349;48.666;8.948;2023-08-20T01:44:40;10.60;;;9.53;;
20379;SDS011;10349;48.666;8.948;2023-08-20T01:47:07;8.40;;;7.70;;
20379;SDS011;10349;48.666;8.948;2023-08-20T01:49:32;9.80;;;8.73;;
20379;SDS011;10349;48.666;8.948;2023-08-20T01:51:58;9.10;;;8.20;;
20379;SDS011;10349;48.666;8.948;2023-08-20T01:54:24;8.97;;;8.07;;
20379;SDS011;10349;48.666;8.948;2023-08-20T01:56:50;9.60;;;8.70;;
20379;SDS011;10349;48.666;8.948;2023-08-20T01:59:15;11.77;;;8.77;;
20379;SDS011;10349;48.666;8.948;2023-08-20T02:01:41;9.97;;;9.07;;
20379;SDS011;10349;48.666;8.948;2023-08-20T02:04:07;12.70;;;8.60;;
20379;SDS011;10349;48.666;8.948;2023-08-20T02:06:32;9.63;;;8.70;;
20379;SDS011;10349;48.666;8.948;2023-08-20T02:08:58;10.47;;;8.87;;
20379;SDS011;10349;48.666;8.948;2023-08-20T02:11:24;9.60;;;8.70;;
20379;SDS011;10349;48.666;8.948;2023-08-20T02:13:49;11.90;;;8.20;;
20379;SDS011;10349;48.666;8.948;2023-08-20T02:16:15;9.50;;;8.70;;
20379;SDS011;10349;48.666;8.948;2023-08-20T02:18:42;8.83;;;8.07;;
20379;SDS011;10349;48.666;8.948;2023-08-20T02:21:08;13.03;;;8.77;;
20379;SDS011;10349;48.666;8.948;2023-08-20T02:23:34;8.40;;;7.60;;
20379;SDS011;10349;48.666;8.948;2023-08-20T02:25:59;10.20;;;8.97;;
20379;SDS011;10349;48.666;8.948;2023-08-20T02:28:28;8.37;;;7.57;;
20379;SDS011;10349;48.666;8.948;2023-08-20T02:30:54;9.03;;;8.07;;
20379;SDS011;10349;48.666;8.948;2023-08-20T02:33:20;8.90;;;8.10;;
20379;SDS011;10349;48.666;8.948;2023-08-20T02:35:46;11.37;;;9.20;;
20379;SDS011;10349;48.666;8.948;2023-08-20T02:38:11;9.37;;;8.57;;
20379;SDS011;10349;48.666;8.948;2023-08-20T02:40:42;8.60;;;7.80;;
20379;SDS011;10349;48.666;8.948;2023-08-20T02:43:08;15.07;;;9.67;;
20379;SDS011;10349;48.666;8.948;2023-08-20T02:45:39;11.60;;;10.40;;
20379;SDS011;10349;48.666;8.948;2023-08-20T02:48:06;11.50;;;10.07;;
20379;SDS011;10349;48.666;8.948;2023-08-20T02:50:33;15.33;;;9.30;;
20379;SDS011;10349;48.666;8.948;2023-08-20T02:52:59;9.80;;;8.60;;
20379;SDS011;10349;48.666;8.948;2023-08-20T02:55:24;8.90;;;7.53;;
20379;SDS011;10349;48.666;8.948;2023-08-20T02:57:50;10.37;;;9.20;;
20379;SDS011;10349;48.666;8.948;2023-08-20T03:00:16;9.77;;;8.60;;
20379;SDS011;10349;48.666;8.948;2023-08-20T03:02:41;10.70;;;9.60;;
20379;SDS011;10349;48.666;8.948;2023-08-20T03:05:08;9.80;;;8.83;;
20379;SDS011;10349;48.666;8.948;2023-08-20T03:07:35;10.30;;;9.40;;
20379;SDS011;10349;48.666;8.948;2023-08-20T03:10:00;9.10;;;8.30;;
20379;SDS011;10349;48.666;8.948;2023-08-20T03:12:28;10.53;;;8.43;;
20379;SDS011;10349;48.666;8.948;2023-08-20T03:14:54;12.30;;;9.70;;
20379;SDS011;10349;48.666;8.948;2023-08-20T03:17:20;9.90;;;8.90;;
20379;SDS011;10349;48.666;8.948;2023-08-20T03:19:55;10.20;;;9.23;;
20379;SDS011;10349;48.666;8.948;2023-08-20T03:22:26;10.90;;;8.37;;
20379;SDS011;10349;48.666;8.948;2023-08-20T03:24:52;8.13;;;7.37;;
20379;SDS011;10349;48.666;8.948;2023-08-20T03:27:18;8.97;;;8.20;;
20379;SDS011;10349;48.666;8.948;2023-08-20T03:29:44;10.37;;;9.30;;
20379;SDS011;10349;48.666;8.948;2023-08-20T03:32:11;7.73;;;7.10;;
20379;SDS011;10349;48.666;8.948;2023-08-20T03:34:37;11.37;;;8.23;;
20379;SDS011;10349;48.666;8.948;2023-08-20T03:37:03;10.27;;;9.27;;
20379;SDS011;10349;48.666;8.948;2023-08-20T03:39:32;11.97;;;9.70;;
20379;SDS011;10349;48.666;8.948;2023-08-20T03:41:59;9.30;;;8.50;;
20379;SDS011;10349;48.666;8.948;2023-08-20T03:44:24;8.20;;;7.70;;
20379;SDS011;10349;48.666;8.948;2023-08-20T03:46:50;10.53;;;9.27;;
20379;SDS011;10349;48.666;8.948;2023-08-20T03:49:16;9.70;;;8.80;;
20379;SDS011;10349;48.666;8.948;2023-08-20T03:51:42;10.83;;;9.83;;
20379;SDS011;10349;48.666;8.948;2023-08-20T03:54:08;11.53;;;10.13;;
20379;SDS011;10349;48.666;8.948;2023-08-20T03:56:34;10.73;;;9.63;;
20379;SDS011;10349;48.666;8.948;2023-08-20T03:59:00;11.90;;;10.00;;
20379;SDS011;10349;48.666;8.948;2023-08-20T04:01:26;11.27;;;10.17;;
20379;SDS011;10349;48.666;8.948;2023-08-20T04:03:52;11.60;;;9.10;;
20379;SDS011;10349;48.666;8.948;2023-08-20T04:06:18;10.93;;;9.70;;
20379;SDS011;10349;48.666;8.948;2023-08-20T04:08:43;10.73;;;9.50;;
20379;SDS011;10349;48.666;8.948;2023-08-20T04:11:09;15.60;;;9.97;;
20379;SDS011;10349;48.666;8.948;2023-08-20T04:13:38;11.00;;;9.07;;
20379;SDS011;10349;48.666;8.948;2023-08-20T04:16:05;11.03;;;9.90;;
20379;SDS011;10349;48.666;8.948;2023-08-20T04:18:31;12.90;;;9.60;;
20379;SDS011;10349;48.666;8.948;2023-08-20T04:20:56;10.20;;;9.20;;
20379;SDS011;10349;48.666;8.948;2023-08-20T04:23:23;13.20;;;9.70;;
20379;SDS011;10349;48.666;8.948;2023-08-20T04:25:49;11.10;;;9.07;;
20379;SDS011;10349;48.666;8.948;2023-08-20T04:28:15;9.80;;;8.90;;
20379;SDS011;10349;48.666;8.948;2023-08-20T04:30:41;10.70;;;9.73;;
20379;SDS011;10349;48.666;8.948;2023-08-20T04:33:06;9.07;;;8.20;;
20379;SDS011;10349;48.666;8.948;2023-08-20T04:35:33;11.07;;;8.77;;
20379;SDS011;10349;48.666;8.948;2023-08-20T04:37:59;17.40;;;8.80;;
20379;SDS011;10349;48.666;8.948;2023-08-20T04:40:26;10.60;;;8.67;;
20379;SDS011;10349;48.666;8.948;2023-08-20T04:42:52;10.97;;;9.80;;
20379;SDS011;10349;48.666;8.948;2023-08-20T04:45:19;11.10;;;9.97;;
20379;SDS011;10349;48.666;8.948;2023-08-20T04:47:46;10.73;;;9.63;;
20379;SDS011;10349;48.666;8.948;2023-08-20T04:50:13;11.00;;;9.60;;
20379;SDS011;10349;48.666;8.948;2023-08-20T04:52:39;12.03;;;9.87;;
20379;SDS011;10349;48.666;8.948;2023-08-20T04:55:06;11.80;;;9.67;;
20379;SDS011;10349;48.666;8.948;2023-08-20T04:57:33;10.80;;;9.80;;
20379;SDS011;10349;48.666;8.948;2023-08-20T05:00:00;10.07;;;8.93;;
20379;SDS011;10349;48.666;8.948;2023-08-20T05:02:37;9.33;;;8.40;;
20379;SDS011;10349;48.666;8.948;2023-08-20T05:05:03;10.30;;;9.40;;
20379;SDS011;10349;48.666;8.948;2023-08-20T05:07:31;12.73;;;9.33;;
20379;SDS011;10349;48.666;8.948;2023-08-20T05:09:57;10.63;;;8.50;;
20379;SDS011;10349;48.666;8.948;2023-08-20T05:12:23;11.97;;;10.77;;
20379;SDS011;10349;48.666;8.948;2023-08-20T05:14:48;11.40;;;10.20;;
20379;SDS011;10349;48.666;8.948;2023-08-20T05:17:14;15.47;;;11.43;;
20379;SDS011;10349;48.666;8.948;2023-08-20T05:19:40;14.87;;;10.47;;
20379;SDS011;10349;48.666;8.948;2023-08-20T05:22:06;14.13;;;11.27;;
20379;SDS011;10349;48.666;8.948;2023-08-20T05:24:34;11.30;;;10.07;;
20379;SDS011;10349;48.666;8.948;2023-08-20T05:27:09;11.67;;;10.47;;
20379;SDS011;10349;48.666;8.948;2023-08-20T05:29:40;14.20;;;11.73;;
20379;SDS011;10349;48.666;8.948;2023-08-20T05:32:06;15.90;;;12.27;;
20379;SDS011;10349;48.666;8.948;2023-08-20T05:34:33;12.30;;;11.00;;
20379;SDS011;10349;48.666;8.948;2023-08-20T05:36:59;12.10;;;10.30;;
20379;SDS011;10349;48.666;8.948;2023-08-20T05:39:27;17.87;;;10.97;;
20379;SDS011;10349;48.666;8.948;2023-08-20T05:41:55;14.10;;;11.10;;
20379;SDS011;10349;48.666;8.948;2023-08-20T05:44:22;10.50;;;9.50;;
20379;SDS011;10349;48.666;8.948;2023-08-20T05:46:49;12.47;;;9.17;;
20379;SDS011;10349;48.666;8.948;2023-08-20T05:49:15;13.70;;;10.70;;
20379;SDS011;10349;48.666;8.948;2023-08-20T05:51:42;14.70;;;9.67;;
20379;SDS011;10349;48.666;8.948;2023-08-20T05:54:09;11.80;;;10.60;;
20379;SDS011;10349;48.666;8.948;2023-08-20T05:56:34;11.13;;;10.03;;
20379;SDS011;10349;48.666;8.948;2023-08-20T05:59:00;11.97;;;10.77;;
20379;SDS011;10349;48.666;8.948;2023-08-20T06:01:26;14.50;;;11.63;;
20379;SDS011;10349;48.666;8.948;2023-08-20T06:03:52;13.23;;;10.87;;
20379;SDS011;10349;48.666;8.948;2023-08-20T06:06:18;13.30;;;11.33;;
20379;SDS011;10349;48.666;8.948;2023-08-20T06:08:43;14.03;;;11.50;;
20379;SDS011;10349;48.666;8.948;2023-08-20T06:11:09;19.00;;;12.90;;
20379;SDS011;10349;48.666;8.948;2023-08-20T06:13:35;12.53;;;11.23;;
20379;SDS011;10349;48.666;8.948;2023-08-20T06:16:00;12.20;;;10.83;;
20379;SDS011;10349;48.666;8.948;2023-08-20T06:18:26;11.90;;;10.90;;
20379;SDS011;10349;48.666;8.948;2023-08-20T06:20:52;12.07;;;10.87;;
20379;SDS011;10349;48.666;8.948;2023-08-20T06:23:17;13.23;;;11.57;;
20379;SDS011;10349;48.666;8.948;2023-08-20T06:25:43;12.70;;;10.80;;
20379;SDS011;10349;48.666;8.948;2023-08-20T06:28:09;11.30;;;10.20;;
20379;SDS011;10349;48.666;8.948;2023-08-20T06:30:35;11.77;;;10.50;;
20379;SDS011;10349;48.666;8.948;2023-08-20T06:33:01;12.07;;;10.87;;
20379;SDS011;10349;48.666;8.948;2023-08-20T06:35:27;15.40;;;11.13;;
20379;SDS011;10349;48.666;8.948;2023-08-20T06:37:52;14.07;;;12.00;;
20379;SDS011;10349;48.666;8.948;2023-08-20T06:40:18;14.10;;;11.47;;
20379;SDS011;10349;48.666;8.948;2023-08-20T06:42:43;12.00;;;10.33;;
20379;SDS011;10349;48.666;8.948;2023-08-20T06:45:09;11.70;;;10.50;;
20379;SDS011;10349;48.666;8.948;2023-08-20T06:47:35;15.53;;;11.63;;
20379;SDS011;10349;48.666;8.948;2023-08-20T06:50:01;11.03;;;10.00;;
20379;SDS011;10349;48.666;8.948;2023-08-20T06:52:27;12.90;;;11.17;;
20379;SDS011;10349;48.666;8.948;2023-08-20T06:54:52;14.10;;;10.57;;
20379;SDS011;10349;48.666;8.948;2023-08-20T06:57:18;11.80;;;10.60;;
20379;SDS011;10349;48.666;8.948;2023-08-20T06:59:44;12.13;;;11.03;;
20379;SDS011;10349;48.666;8.948;2023-08-20T07:02:10;12.03;;;10.73;;
20379;SDS011;10349;48.666;8.948;2023-08-20T07:04:36;12.47;;;10.70;;
20379;SDS011;10349;48.666;8.948;2023-08-20T07:07:01;11.53;;;10.43;;
20379;SDS011;10349;48.666;8.948;2023-08-20T07:09:30;11.13;;;10.17;;
20379;SDS011;10349;48.666;8.948;2023-08-20T07:11:56;11.70;;;10.50;;
20379;SDS011;10349;48.666;8.948;2023-08-20T07:14:21;11.83;;;10.70;;
20379;SDS011;10349;48.666;8.948;2023-08-20T07:16:47;11.80;;;10.60;;
20379;SDS011;10349;48.666;8.948;2023-08-20T07:19:13;11.30;;;10.20;;
20379;SDS011;10349;48.666;8.948;2023-08-20T07:21:38;11.57;;;9.60;;
20379;SDS011;10349;48.666;8.948;2023-08-20T07:24:04;14.63;;;11.70;;
20379;SDS011;10349;48.666;8.948;2023-08-20T07:26:30;14.60;;;9.83;;
20379;SDS011;10349;48.666;8.948;2023-08-20T07:28:56;12.57;;;10.10;;
20379;SDS011;10349;48.666;8.948;2023-08-20T07:34:00;12.37;;;10.57;;
20379;SDS011;10349;48.666;8.948;2023-08-20T07:36:26;11.47;;;10.37;;
20379;SDS011;10349;48.666;8.948;2023-08-20T07:38:52;12.00;;;10.90;;
20379;SDS011;10349;48.666;8.948;2023-08-20T07:41:19;11.40;;;10.30;;
20379;SDS011;10349;48.666;8.948;2023-08-20T07:43:45;10.83;;;9.73;;
20379;SDS011;10349;48.666;8.948;2023-08-20T07:46:11;10.93;;;9.93;;
20379;SDS011;10349;48.666;8.948;2023-08-20T07:48:38;12.10;;;10.43;;
20379;SDS011;10349;48.666;8.948;2023-08-20T07:51:04;12.87;;;11.53;;
20379;SDS011;10349;48.666;8.948;2023-08-20T07:53:30;14.77;;;10.23;;
20379;SDS011;10349;48.666;8.948;2023-08-20T07:55:56;12.53;;;11.33;;
20379;SDS011;10349;48.666;8.948;2023-08-20T07:58:22;10.70;;;9.60;;
20379;SDS011;10349;48.666;8.948;2023-08-20T08:00:48;11.20;;;10.03;;
20379;SDS011;10349;48.666;8.948;2023-08-20T08:03:14;11.57;;;10.33;;
20379;SDS011;10349;48.666;8.948;2023-08-20T08:05:49;11.00;;;9.87;;
20379;SDS011;10349;48.666;8.948;2023-08-20T08:08:16;11.83;;;10.20;;
20379;SDS011;10349;48.666;8.948;2023-08-20T08:10:42;11.20;;;10.10;;
20379;SDS011;10349;48.666;8.948;2023-08-20T08:13:15;11.17;;;10.07;;
20379;SDS011;10349;48.666;8.948;2023-08-20T08:15:43;12.57;;;10.30;;
20379;SDS011;10349;48.666;8.948;2023-08-20T08:18:09;10.63;;;9.60;;
20379;SDS011;10349;48.666;8.948;2023-08-20T08:20:34;12.80;;;9.70;;
20379;SDS011;10349;48.666;8.948;2023-08-20T08:23:00;10.37;;;9.37;;
20379;SDS011;10349;48.666;8.948;2023-08-20T08:25:26;11.67;;;10.43;;
20379;SDS011;10349;48.666;8.948;2023-08-20T08:27:52;11.67;;;10.47;;
20379;SDS011;10349;48.666;8.948;2023-08-20T08:30:18;11.97;;;10.77;;
20379;SDS011;10349;48.666;8.948;2023-08-20T08:32:44;11.63;;;10.50;;
20379;SDS011;10349;48.666;8.948;2023-08-20T08:35:09;14.23;;;10.50;;
20379;SDS011;10349;48.666;8.948;2023-08-20T08:37:35;13.00;;;10.43;;
20379;SDS011;10349;48.666;8.948;2023-08-20T08:40:01;11.47;;;10.00;;
20379;SDS011;10349;48.666;8.948;2023-08-20T08:42:30;12.93;;;9.40;;
20379;SDS011;10349;48.666;8.948;2023-08-20T08:44:58;10.50;;;9.33;;
20379;SDS011;10349;48.666;8.948;2023-08-20T08:47:26;13.47;;;9.97;;
20379;SDS011;10349;48.666;8.948;2023-08-20T08:49:52;10.63;;;9.73;;
20379;SDS011;10349;48.666;8.948;2023-08-20T08:52:21;9.97;;;9.10;;
20379;SDS011;10349;48.666;8.948;2023-08-20T08:54:48;9.93;;;8.93;;
20379;SDS011;10349;48.666;8.948;2023-08-20T08:57:14;10.20;;;9.40;;
20379;SDS011;10349;48.666;8.948;2023-08-20T08:59:41;14.17;;;10.20;;
20379;SDS011;10349;48.666;8.948;2023-08-20T09:02:07;11.87;;;10.23;;
20379;SDS011;10349;48.666;8.948;2023-08-20T09:04:38;11.67;;;10.30;;
20379;SDS011;10349;48.666;8.948;2023-08-20T09:07:13;12.30;;;11.03;;
20379;SDS011;10349;48.666;8.948;2023-08-20T09:09:46;10.33;;;9.33;;
20379;SDS011;10349;48.666;8.948;2023-08-20T09:12:13;10.97;;;9.87;;
20379;SDS011;10349;48.666;8.948;2023-08-20T09:14:39;11.90;;;10.80;;
20379;SDS011;10349;48.666;8.948;2023-08-20T09:17:08;11.67;;;10.47;;
20379;SDS011;10349;48.666;8.948;2023-08-20T09:19:37;13.60;;;9.60;;
20379;SDS011;10349;48.666;8.948;2023-08-20T09:22:03;11.00;;;9.87;;
20379;SDS011;10349;48.666;8.948;2023-08-20T09:24:33;8.43;;;7.73;;
20379;SDS011;10349;48.666;8.948;2023-08-20T09:27:05;10.53;;;9.50;;
20379;SDS011;10349;48.666;8.948;2023-08-20T09:30:14;9.63;;;8.40;;
20379;SDS011;10349;48.666;8.948;2023-08-20T09:32:22;9.53;;;8.10;;
20379;SDS011;10349;48.666;8.948;2023-08-20T09:34:49;9.60;;;8.60;;
20379;SDS011;10349;48.666;8.948;2023-08-20T09:37:17;9.57;;;8.80;;
20379;SDS011;10349;48.666;8.948;2023-08-20T09:39:43;9.30;;;8.60;;
20379;SDS011;10349;48.666;8.948;2023-08-20T09:42:10;12.27;;;7.57;;
20379;SDS011;10349;48.666;8.948;2023-08-20T09:44:38;7.43;;;6.73;;
20379;SDS011;10349;48.666;8.948;2023-08-20T09:47:12;9.53;;;8.50;;
20379;SDS011;10349;48.666;8.948;2023-08-20T09:49:40;9.27;;;8.57;;
20379;SDS011;10349;48.666;8.948;2023-08-20T09:52:07;9.80;;;9.00;;
20379;SDS011;10349;48.666;8.948;2023-08-20T09:57:38;8.70;;;8.13;;
20379;SDS011;10349;48.666;8.948;2023-08-20T10:00:05;12.03;;;10.83;;
20379;SDS011;10349;48.666;8.948;2023-08-20T10:02:39;8.80;;;8.03;;
20379;SDS011;10349;48.666;8.948;2023-08-20T10:05:09;8.50;;;7.70;;
20379;SDS011;10349;48.666;8.948;2023-08-20T10:07:35;10.27;;;9.27;;
20379;SDS011;10349;48.666;8.948;2023-08-20T10:10:02;13.87;;;12.43;;
20379;SDS011;10349;48.666;8.948;2023-08-20T10:12:33;10.40;;;9.50;;
20379;SDS011;10349;48.666;8.948;2023-08-20T10:15:01;9.00;;;8.20;;
20379;SDS011;10349;48.666;8.948;2023-08-20T10:17:31;9.90;;;9.10;;
20379;SDS011;10349;48.666;8.948;2023-08-20T10:19:58;11.37;;;9.00;;
20379;SDS011;10349;48.666;8.948;2023-08-20T10:22:35;10.30;;;9.10;;
20379;SDS011;10349;48.666;8.948;2023-08-20T10:25:05;8.43;;;7.73;;
20379;SDS011;10349;48.666;8.948;2023-08-20T10:27:37;10.03;;;8.90;;
20379;SDS011;10349;48.666;8.948;2023-08-20T10:30:08;9.30;;;8.60;;
20379;SDS011;10349;48.666;8.948;2023-08-20T10:32:50;10.23;;;9.20;;
20379;SDS011;10349;48.666;8.948;2023-08-20T10:35:18;9.23;;;8.33;;
20379;SDS011;10349;48.666;8.948;2023-08-20T10:40:46;9.43;;;8.10;;
20379;SDS011;10349;48.666;8.948;2023-08-20T10:46:02;9.20;;;8.30;;
20379;SDS011;10349;48.666;8.948;2023-08-20T10:48:56;7.63;;;6.97;;
20379;SDS011;10349;48.666;8.948;2023-08-20T10:51:33;7.93;;;7.30;;
20379;SDS011;10349;48.666;8.948;2023-08-20T10:59:10;9.77;;;8.77;;
20379;SDS011;10349;48.666;8.948;2023-08-20T11:01:51;8.13;;;7.33;;
20379;SDS011;10349;48.666;8.948;2023-08-20T11:04:22;9.37;;;8.47;;
20379;SDS011;10349;48.666;8.948;2023-08-20T11:06:58;7.33;;;6.70;;
20379;SDS011;10349;48.666;8.948;2023-08-20T11:09:28;8.07;;;7.47;;
20379;SDS011;10349;48.666;8.948;2023-08-20T11:11:55;7.87;;;7.27;;
20379;SDS011;10349;48.666;8.948;2023-08-20T11:14:21;7.70;;;7.10;;
20379;SDS011;10349;48.666;8.948;2023-08-20T11:16:47;7.47;;;6.97;;
20379;SDS011;10349;48.666;8.948;2023-08-20T11:19:13;7.63;;;7.03;;
20379;SDS011;10349;48.666;8.948;2023-08-20T11:21:40;7.80;;;7.20;;
20379;SDS011;10349;48.666;8.948;2023-08-20T11:24:07;6.53;;;6.13;;
20379;SDS011;10349;48.666;8.948;2023-08-20T11:26:34;7.23;;;6.70;;
20379;SDS011;10349;48.666;8.948;2023-08-20T11:29:00;7.80;;;7.07;;
20379;SDS011;10349;48.666;8.948;2023-08-20T11:31:30;8.03;;;7.33;;
20379;SDS011;10349;48.666;8.948;2023-08-20T11:33:56;7.80;;;7.23;;
20379;SDS011;10349;48.666;8.948;2023-08-20T11:36:22;7.83;;;7.23;;
20379;SDS011;10349;48.666;8.948;2023-08-20T11:38:49;7.97;;;7.37;;
20379;SDS011;10349;48.666;8.948;2023-08-20T11:41:17;10.80;;;7.70;;
20379;SDS011;10349;48.666;8.948;2023-08-20T11:43:43;7.73;;;7.13;;
20379;SDS011;10349;48.666;8.948;2023-08-20T11:46:12;8.20;;;7.40;;
20379;SDS011;10349;48.666;8.948;2023-08-20T11:48:59;7.00;;;5.73;;
20379;SDS011;10349;48.666;8.948;2023-08-20T11:54:24;9.80;;;8.47;;
20379;SDS011;10349;48.666;8.948;2023-08-20T11:56:51;8.80;;;8.00;;
20379;SDS011;10349;48.666;8.948;2023-08-20T11:59:18;8.00;;;7.40;;
20379;SDS011;10349;48.666;8.948;2023-08-20T12:01:51;7.67;;;7.07;;
20379;SDS011;10349;48.666;8.948;2023-08-20T12:04:23;10.13;;;7.43;;
20379;SDS011;10349;48.666;8.948;2023-08-20T12:07:01;8.30;;;7.50;;
20379;SDS011;10349;48.666;8.948;2023-08-20T12:09:29;8.03;;;7.33;;
20379;SDS011;10349;48.666;8.948;2023-08-20T12:11:54;7.40;;;6.70;;
20379;SDS011;10349;48.666;8.948;2023-08-20T12:14:21;8.20;;;7.50;;
20379;SDS011;10349;48.666;8.948;2023-08-20T12:16:47;8.97;;;8.27;;
20379;SDS011;10349;48.666;8.948;2023-08-20T12:19:15;8.23;;;7.43;;
20379;SDS011;10349;48.666;8.948;2023-08-20T12:21:42;9.53;;;7.23;;
20379;SDS011;10349;48.666;8.948;2023-08-20T12:24:11;8.17;;;7.57;;
20379;SDS011;10349;48.666;8.948;2023-08-20T12:26:37;8.13;;;7.50;;
20379;SDS011;10349;48.666;8.948;2023-08-20T12:29:03;7.33;;;6.80;;
20379;SDS011;10349;48.666;8.948;2023-08-20T12:31:29;8.17;;;7.47;;
20379;SDS011;10349;48.666;8.948;2023-08-20T12:33:56;8.30;;;7.60;;
20379;SDS011;10349;48.666;8.948;2023-08-20T12:36:23;8.93;;;7.93;;
20379;SDS011;10349;48.666;8.948;2023-08-20T12:38:48;7.87;;;7.20;;
20379;SDS011;10349;48.666;8.948;2023-08-20T12:41:14;7.33;;;6.87;;
20379;SDS011;10349;48.666;8.948;2023-08-20T12:43:40;9.53;;;8.77;;
20379;SDS011;10349;48.666;8.948;2023-08-20T12:46:06;9.30;;;8.57;;
20379;SDS011;10349;48.666;8.948;2023-08-20T12:48:33;10.60;;;7.53;;
20379;SDS011;10349;48.666;8.948;2023-08-20T12:50:59;8.17;;;7.50;;
20379;SDS011;10349;48.666;8.948;2023-08-20T12:53:26;8.60;;;7.67;;
20379;SDS011;10349;48.666;8.948;2023-08-20T12:55:51;8.10;;;7.47;;
20379;SDS011;10349;48.666;8.948;2023-08-20T12:58:17;8.23;;;7.37;;
20379;SDS011;10349;48.666;8.948;2023-08-20T13:00:43;9.27;;;8.43;;
20379;SDS011;10349;48.666;8.948;2023-08-20T13:03:09;9.50;;;8.57;;
20379;SDS011;10349;48.666;8.948;2023-08-20T13:05:35;8.93;;;8.10;;
20379;SDS011;10349;48.666;8.948;2023-08-20T13:08:01;8.23;;;7.63;;
20379;SDS011;10349;48.666;8.948;2023-08-20T13:10:27;8.70;;;8.00;;
20379;SDS011;10349;48.666;8.948;2023-08-20T13:12:54;8.87;;;8.27;;
20379;SDS011;10349;48.666;8.948;2023-08-20T13:15:22;7.67;;;7.20;;
20379;SDS011;10349;48.666;8.948;2023-08-20T13:17:49;8.70;;;8.00;;
20379;SDS011;10349;48.666;8.948;2023-08-20T13:20:15;10.50;;;8.40;;
20379;SDS011;10349;48.666;8.948;2023-08-20T13:22:46;8.83;;;7.50;;
20379;SDS011;10349;48.666;8.948;2023-08-20T13:25:15;8.80;;;7.53;;
20379;SDS011;10349;48.666;8.948;2023-08-20T13:27:41;8.70;;;8.00;;
20379;SDS011;10349;48.666;8.948;2023-08-20T13:30:07;8.03;;;7.43;;
20379;SDS011;10349;48.666;8.948;2023-08-20T13:32:34;9.47;;;7.97;;
20379;SDS011;10349;48.666;8.948;2023-08-20T13:35:00;12.10;;;8.70;;
20379;SDS011;10349;48.666;8.948;2023-08-20T13:37:27;8.40;;;7.67;;
20379;SDS011;10349;48.666;8.948;2023-08-20T13:39:54;8.60;;;7.90;;
20379;SDS011;10349;48.666;8.948;2023-08-20T13:42:19;8.20;;;7.60;;
20379;SDS011;10349;48.666;8.948;2023-08-20T13:44:45;7.73;;;7.23;;
20379;SDS011;10349;48.666;8.948;2023-08-20T13:47:11;7.60;;;7.03;;
20379;SDS011;10349;48.666;8.948;2023-08-20T13:49:36;7.27;;;6.63;;
20379;SDS011;10349;48.666;8.948;2023-08-20T13:52:02;8.43;;;7.70;;
20379;SDS011;10349;48.666;8.948;2023-08-20T13:54:28;9.77;;;8.60;;
20379;SDS011;10349;48.666;8.948;2023-08-20T13:56:53;8.40;;;7.80;;
20379;SDS011;10349;48.666;8.948;2023-08-20T13:59:19;8.77;;;8.07;;
20379;SDS011;10349;48.666;8.948;2023-08-20T14:01:45;8.63;;;7.73;;
20379;SDS011;10349;48.666;8.948;2023-08-20T14:04:11;8.67;;;8.00;;
20379;SDS011;10349;48.666;8.948;2023-08-20T14:06:36;8.63;;;7.97;;
20379;SDS011;10349;48.666;8.948;2023-08-20T14:09:02;8.63;;;7.97;;
20379;SDS011;10349;48.666;8.948;2023-08-20T14:11:30;8.80;;;8.10;;
20379;SDS011;10349;48.666;8.948;2023-08-20T14:13:55;8.50;;;7.80;;
20379;SDS011;10349;48.666;8.948;2023-08-20T14:16:21;7.93;;;7.23;;
20379;SDS011;10349;48.666;8.948;2023-08-20T14:18:47;8.67;;;7.80;;
20379;SDS011;10349;48.666;8.948;2023-08-20T14:21:12;7.93;;;7.37;;
20379;SDS011;10349;48.666;8.948;2023-08-20T14:23:38;7.70;;;7.10;;
20379;SDS011;10349;48.666;8.948;2023-08-20T14:26:05;8.87;;;8.07;;
20379;SDS011;10349;48.666;8.948;2023-08-20T14:28:35;8.00;;;7.20;;
20379;SDS011;10349;48.666;8.948;2023-08-20T14:31:04;8.30;;;7.50;;
20379;SDS011;10349;48.666;8.948;2023-08-20T14:33:32;8.10;;;7.40;;
20379;SDS011;10349;48.666;8.948;2023-08-20T14:35:58;7.47;;;6.70;;
20379;SDS011;10349;48.666;8.948;2023-08-20T14:38:23;8.57;;;7.93;;
20379;SDS011;10349;48.666;8.948;2023-08-20T14:40:49;8.53;;;7.83;;
20379;SDS011;10349;48.666;8.948;2023-08-20T14:43:15;7.93;;;7.33;;
20379;SDS011;10349;48.666;8.948;2023-08-20T14:45:40;7.23;;;6.63;;
20379;SDS011;10349;48.666;8.948;2023-08-20T14:48:06;9.27;;;8.23;;
20379;SDS011;10349;48.666;8.948;2023-08-20T14:50:32;8.30;;;7.60;;
20379;SDS011;10349;48.666;8.948;2023-08-20T14:52:58;7.90;;;7.30;;
20379;SDS011;10349;48.666;8.948;2023-08-20T14:55:24;7.43;;;6.70;;
20379;SDS011;10349;48.666;8.948;2023-08-20T14:57:50;7.30;;;6.60;;
20379;SDS011;10349;48.666;8.948;2023-08-20T15:00:16;7.40;;;6.87;;
20379;SDS011;10349;48.666;8.948;2023-08-20T15:02:44;9.10;;;8.20;;
20379;SDS011;10349;48.666;8.948;2023-08-20T15:05:10;8.43;;;7.83;;
20379;SDS011;10349;48.666;8.948;2023-08-20T15:07:36;8.10;;;7.53;;